17 sierpnia 2022

Czas Kod Pogoda Temp. Widoczność Sufit Wiatr METAR/SPECI
12:30
V
23 °C 10 km+ - 200° 200° 10 kt METAR LFBG 171030Z AUTO 20010KT 9999 FEW031/// SCT041/// //////CB 23/14 Q1011 TEMPO 3000 -TSRA
12:00
M
23 °C 10 km+ 2.600 ft 210° 210° 9 kt METAR LFBG 171000Z AUTO 21009KT 9999 BKN026/// //////CB 23/15 Q1011 TEMPO 3000 -TSRA
11:30
M
22 °C 10 km+ 2.600 ft 200° 200° 8 kt METAR LFBG 170930Z AUTO 20008KT 180V250 9999 FEW019/// BKN026/// ///CB 22/15 Q1011 TEMPO 3000 -TSRA
11:00
V
21 °C 10 km+ - 220° 220° 7 kt METAR LFBG 170900Z AUTO 22007KT 180V250 9999 SCT017/// //////CB 21/16 Q1011 TEMPO 3000 -TSRA
10:30
V
20 °C 10 km+ - 180° 180° 9 kt METAR LFBG 170830Z AUTO 18009KT 9999 FEW013/// ///TCU 20/16 Q1011 TEMPO 24010G20KT 2000 TSRA BKN025CB
10:00
V
19 °C 10 km+ - 190° 190° 9 kt METAR LFBG 170800Z AUTO 19009KT 9999 FEW010 SCT190 19/16 Q1010 TEMPO SCT040TCU
09:30
V
18 °C 10 km+ 11.000 ft 170° 170° 9 kt METAR LFBG 170730Z AUTO 17009KT 9999 FEW008 BKN110 BKN190 18/16 Q1010 TEMPO SCT040TCU
09:00
V
19 °C 10 km+ - 170° 170° 9 kt METAR LFBG 170700Z AUTO 17009KT 9999 NSC 19/16 Q1010 TEMPO SCT040TCU
08:30
V
17 °C 10 km+ - 170° 170° 8 kt METAR LFBG 170630Z AUTO 17008KT CAVOK 17/16 Q1010 TEMPO SCT040TCU
08:00
V
17 °C 10 km+ - 170° 170° 3 kt METAR LFBG 170600Z AUTO 17003KT CAVOK 17/16 Q1010 TEMPO SCT040TCU
07:30
V
16 °C 10 km+ - 170° 170° 4 kt METAR LFBG 170530Z AUTO 17004KT CAVOK 16/15 Q1010 TEMPO SCT040TCU
07:00
V
16 °C 10 km+ - 160° 160° 5 kt METAR LFBG 170500Z AUTO 16005KT 9999 FEW027 16/15 Q1009
06:30
V
17 °C 10 km+ 11.000 ft 150° 150° 5 kt METAR LFBG 170430Z AUTO 15005KT 9999 -RA FEW036/// BKN110/// OVC130/// //////TCU 17/16 Q1009
06:00
V
17 °C 10 km+ - 160° 160° 7 kt METAR LFBG 170400Z AUTO 16007KT 9999 //////TCU 17/16 Q1009
05:30
V
17 °C 10 km+ - 160° 160° 6 kt METAR LFBG 170330Z AUTO 16006KT 9999 -RA //////TCU 17/16 Q1009
05:00
V
17 °C 10 km+ - 140° 140° 7 kt METAR LFBG 170300Z AUTO 14007KT 9999 ///TCU 17/15 Q1009
04:30
V
16 °C 10 km+ - 160° 160° 6 kt METAR LFBG 170230Z AUTO 16006KT 9999 ///TCU 16/15 Q1009
04:00
V
16 °C 10 km+ - 170° 170° 5 kt METAR LFBG 170200Z AUTO 17005KT CAVOK 16/14 Q1009
03:30
V
16 °C 10 km+ - 140° 140° 6 kt METAR LFBG 170130Z AUTO 14006KT CAVOK 16/14 Q1010
03:00
V
16 °C 10 km+ - 170° 170° 3 kt METAR LFBG 170100Z AUTO 17003KT CAVOK 16/14 Q1010
02:30
V
16 °C 10 km+ - 120° 120° 6 kt METAR LFBG 170030Z AUTO 12006KT CAVOK 16/14 Q1010
02:00
V
18 °C 10 km+ - Var Var 1 kt METAR LFBG 170000Z AUTO VRB01KT CAVOK 18/14 Q1010
01:30
V
18 °C 10 km+ - Var 000° 0 kt METAR LFBG 162330Z AUTO 00000KT CAVOK 18/15 Q1010
01:00
V
19 °C 10 km+ - 300° 300° 2 kt METAR LFBG 162300Z AUTO 30002KT CAVOK 19/14 Q1010
00:30
V
19 °C 10 km+ - Var Var 2 kt METAR LFBG 162230Z AUTO VRB02KT CAVOK 19/15 Q1010
00:00
V
19 °C 10 km+ - 220° 220° 2 kt METAR LFBG 162200Z AUTO 22002KT CAVOK 19/14 Q1009 TEMPO 4000 SHRA SCT080TCU

16 sierpnia 2022

Czas Kod Pogoda Temp. Widoczność Sufit Wiatr METAR/SPECI
23:30
V
19 °C 10 km+ - 240° 240° 3 kt METAR LFBG 162130Z AUTO 24003KT CAVOK 19/14 Q1010 TEMPO 4000 SHRA SCT080TCU
23:00
V
20 °C 10 km+ - 240° 240° 5 kt METAR LFBG 162100Z AUTO 24005KT CAVOK 20/14 Q1010 TEMPO 4000 SHRA SCT080TCU
22:30
V
21 °C 10 km+ - 240° 240° 6 kt METAR LFBG 162030Z AUTO 24006KT CAVOK 21/14 Q1010 TEMPO 4000 SHRA SCT080TCU
22:00
V
21 °C 10 km+ - 250° 250° 9 kt METAR LFBG 162000Z AUTO 25009KT CAVOK 21/14 Q1010 TEMPO 4000 SHRA SCT080TCU
21:30
V
23 °C 10 km+ - 250° 250° 7 kt METAR LFBG 161930Z AUTO 25007KT CAVOK 23/14 Q1009 TEMPO 4000 SHRA SCT080TCU
21:00
V
24 °C 10 km+ - 260° 260° 6 kt METAR LFBG 161900Z AUTO 26006KT CAVOK 24/15 Q1008 TEMPO 4000 SHRA SCT080TCU
20:30
V
25 °C 10 km+ - 260° 260° 9 kt METAR LFBG 161830Z AUTO 26009KT CAVOK 25/14 Q1008 TEMPO 4000 SHRA SCT080TCU
20:00
V
25 °C 10 km+ - 270° 270° 10 kt METAR LFBG 161800Z AUTO 27010KT CAVOK 25/15 Q1008 NOSIG
19:30
V
26 °C 10 km+ - 260° 260° 10 kt METAR LFBG 161730Z AUTO 26010KT 230V290 CAVOK 26/15 Q1007 NOSIG
19:00
V
27 °C 10 km+ - 260° 260° 13 kt METAR LFBG 161700Z AUTO 26013KT CAVOK 27/15 Q1007 NOSIG
18:30
V
27 °C 10 km+ 4.600 ft 270° 270° 11 kt METAR LFBG 161630Z AUTO 27011KT 240V310 9999 BKN046 27/15 Q1007 NOSIG
18:00
V
28 °C 10 km+ - 290° 290° 9 kt METAR LFBG 161600Z AUTO 29009KT 250V320 9999 SCT046 SCT096 28/15 Q1007 NOSIG
17:30
V
27 °C 10 km+ 4.500 ft 350° 350° 4 kt METAR LFBG 161530Z AUTO 35004KT 280V090 9999 BKN045 BKN058 BKN072 27/15 Q1007 NOSIG
17:00
V
27 °C 10 km+ 16.000 ft 240° 240° 5 kt METAR LFBG 161500Z AUTO 24005KT 170V320 9999 FEW048 SCT072 BKN160 27/16 Q1008 NOSIG
16:30
V
27 °C 10 km+ 5.200 ft 210° 210° 5 kt METAR LFBG 161430Z AUTO 21005KT 110V270 9999 SCT041 BKN052 BKN160 27/15 Q1008 NOSIG
16:00
V
26 °C 10 km+ 3.800 ft Var Var 3 kt METAR LFBG 161400Z AUTO VRB03KT 9999 BKN038 BKN046 26/16 Q1008 TEMPO 25015G30KT 2000 TSRA BKN040CB
15:30
V
26 °C 10 km+ 4.000 ft 010° 010° 4 kt METAR LFBG 161330Z AUTO 01004KT 310V060 9999 BKN040 BKN150 26/16 Q1008 TEMPO 25015G30KT 2000 TSRA BKN040CB
15:00
V
26 °C 10 km+ - 010° 010° 5 kt METAR LFBG 161300Z AUTO 01005KT 330V050 9999 FEW035 SCT140 26/16 Q1007 TEMPO 25015G30KT 2000 TSRA BKN040CB
14:30
V
26 °C 10 km+ - 020° 020° 5 kt METAR LFBG 161230Z AUTO 02005KT 340V080 CAVOK 26/17 Q1007 TEMPO 25015G30KT 2000 TSRA BKN040CB
14:00
V
26 °C 10 km+ - Var Var 4 kt METAR LFBG 161200Z AUTO VRB04KT CAVOK 26/17 Q1008 TEMPO 25015G30KT 2000 TSRA BKN040CB
13:30
V
25 °C 10 km+ - 330° 330° 6 kt METAR LFBG 161130Z AUTO 33006KT 270V030 CAVOK 25/17 Q1008 TEMPO 25015G30KT 2000 TSRA BKN040CB
13:00
V
24 °C 10 km+ - Var Var 3 kt METAR LFBG 161100Z AUTO VRB03KT CAVOK 24/17 Q1008 TEMPO 25015G30KT 2000 TSRA BKN040CB
12:30
V
24 °C 10 km+ - Var Var 1 kt METAR LFBG 161030Z AUTO VRB01KT CAVOK 24/16 Q1008 TEMPO 25015G30KT 2000 TSRA BKN040CB
12:00
V
24 °C 10 km+ - 060° 060° 4 kt METAR LFBG 161000Z AUTO 06004KT 010V100 CAVOK 24/16 Q1008 TEMPO 25015G30KT 2000 TSRA BKN040CB
11:30
V
23 °C 10 km+ - 050° 050° 3 kt METAR LFBG 160930Z AUTO 05003KT 360V120 CAVOK 23/16 Q1007 TEMPO 25015G30KT 2000 TSRA BKN040CB
11:00
V
22 °C 10 km+ - 040° 040° 4 kt METAR LFBG 160900Z AUTO 04004KT 350V080 CAVOK 22/17 Q1007 TEMPO 25015G30KT 2000 TSRA BKN040CB
10:30
V
21 °C 10 km+ 4.900 ft Var Var 3 kt METAR LFBG 160830Z AUTO VRB03KT 9999 BKN049 OVC056 21/17 Q1008 TEMPO 25015G30KT 2000 TSRA BKN040CB
10:00
V
20 °C 10 km+ - 070° 070° 3 kt METAR LFBG 160800Z AUTO 07003KT 030V090 CAVOK 20/17 Q1008 TEMPO 4000 SHRA SCT080TCU
09:30
V
19 °C 10 km+ - 070° 070° 5 kt METAR LFBG 160730Z AUTO 07005KT 9999 ///CB 19/16 Q1007 TEMPO 4000 SHRA
09:00
V
18 °C 9 km - 050° 050° 4 kt METAR LFBG 160700Z AUTO 05004KT 9000 NSC 18/16 Q1008 TEMPO 4000 SHRA SCT080TCU
08:30
V
18 °C 9 km 10.000 ft Var Var 2 kt METAR LFBG 160630Z AUTO VRB02KT 9000 FEW043/// BKN100/// BKN120/// ///CB 18/17 Q1008 TEMPO 4000 SHRA
08:00
V
17 °C 9 km 4.100 ft 230° 230° 2 kt METAR LFBG 160600Z AUTO 23002KT 9000 BKN041/// BKN130/// OVC210/// //////CB 17/16 Q1008 TEMPO 4000 SHRA
07:30
V
18 °C 9 km - Var Var 2 kt METAR LFBG 160530Z AUTO VRB02KT 9000 NSC 18/16 Q1007 TEMPO 4000 SHRA SCT080TCU
07:00
V
17 °C 8 km - 070° 070° 3 kt METAR LFBG 160500Z AUTO 07003KT 8000 NSC 17/16 Q1007 TEMPO 4000 SHRA SCT080TCU
06:30
V
17 °C 8 km - 080° 080° 3 kt METAR LFBG 160430Z AUTO 08003KT 8000 NSC 17/16 Q1007
06:00
V
17 °C 8 km - 080° 080° 4 kt METAR LFBG 160400Z AUTO 08004KT 8000 NSC 17/16 Q1007
05:30
V
17 °C 9 km - Var Var 1 kt METAR LFBG 160330Z AUTO VRB01KT 9000 NSC 17/15 Q1008
05:00
V
17 °C 8 km - 100° 100° 4 kt METAR LFBG 160300Z AUTO 10004KT 8000 NSC 17/15 Q1008
04:30
V
17 °C 9 km - 090° 090° 2 kt METAR LFBG 160230Z AUTO 09002KT 9000 NSC 17/16 Q1008
04:00
V
17 °C 9 km - 070° 070° 3 kt METAR LFBG 160200Z AUTO 07003KT 9000 NSC 17/15 Q1008
03:30
V
17 °C 9 km - 100° 100° 2 kt METAR LFBG 160130Z AUTO 10002KT 9000 NSC 17/16 Q1008
03:00
V
17 °C 9 km - 100° 100° 4 kt METAR LFBG 160100Z AUTO 10004KT 9000 NSC 17/15 Q1009
02:30
V
17 °C 9 km - 120° 120° 3 kt METAR LFBG 160030Z AUTO 12003KT 9000 NSC 17/15 Q1009 NOSIG
02:00
V
18 °C 10 km+ - Var 000° 0 kt METAR LFBG 160000Z AUTO 00000KT CAVOK 18/16 Q1009 NOSIG
01:30
V
19 °C 10 km+ - 200° 200° 3 kt METAR LFBG 152330Z AUTO 20003KT CAVOK 19/16 Q1009 NOSIG
01:00
V
19 °C 10 km+ - 220° 220° 3 kt METAR LFBG 152300Z AUTO 22003KT CAVOK 19/16 Q1009 NOSIG
00:30
V
19 °C 10 km+ - 180° 180° 3 kt METAR LFBG 152230Z AUTO 18003KT CAVOK 19/16 Q1009 NOSIG
00:00
V
20 °C 10 km+ - 250° 250° 3 kt METAR LFBG 152200Z AUTO 25003KT CAVOK 20/16 Q1009 NOSIG

15 sierpnia 2022

Czas Kod Pogoda Temp. Widoczność Sufit Wiatr METAR/SPECI
23:30
V
20 °C 10 km+ - 250° 250° 4 kt METAR LFBG 152130Z AUTO 25004KT CAVOK 20/16 Q1009 NOSIG
23:00
V
21 °C 10 km+ - 230° 230° 3 kt METAR LFBG 152100Z AUTO 23003KT CAVOK 21/16 Q1009 NOSIG
22:30
V
21 °C 10 km+ - 240° 240° 4 kt METAR LFBG 152030Z AUTO 24004KT CAVOK 21/16 Q1009 NOSIG
22:00
V
22 °C 10 km+ - 260° 260° 4 kt METAR LFBG 152000Z AUTO 26004KT CAVOK 22/16 Q1009 NOSIG
21:30
V
22 °C 10 km+ - 250° 250° 6 kt METAR LFBG 151930Z AUTO 25006KT CAVOK 22/16 Q1009 NOSIG
21:00
V
23 °C 10 km+ - 260° 260° 7 kt METAR LFBG 151900Z AUTO 26007KT CAVOK 23/15 Q1008 NOSIG
20:30
V
24 °C 10 km+ - 260° 260° 9 kt METAR LFBG 151830Z AUTO 26009KT CAVOK 24/15 Q1008 NOSIG
20:00
V
24 °C 10 km+ - 260° 260° 10 kt METAR LFBG 151800Z AUTO 26010KT CAVOK 24/15 Q1008 NOSIG
19:30
V
25 °C 10 km+ - 250° 250° 10 kt METAR LFBG 151730Z AUTO 25010KT 9999 FEW041 25/15 Q1008 NOSIG
19:00
V
26 °C 10 km+ - 260° 260° 13 kt METAR LFBG 151700Z AUTO 26013KT 9999 FEW042 26/15 Q1008 NOSIG
18:30
V
26 °C 10 km+ - 240° 240° 13 kt METAR LFBG 151630Z AUTO 24013KT 210V270 9999 FEW044 26/15 Q1008 NOSIG
18:00
V
26 °C 10 km+ - 260° 260° 12 kt METAR LFBG 151600Z AUTO 26012KT 9999 FEW045 SCT054 26/15 Q1008
17:30
V
26 °C 10 km+ 4.500 ft 250° 250° 14 kt METAR LFBG 151530Z AUTO 25014KT 210V280 9999 BKN045 BKN056 26/14 Q1008
17:00
V
26 °C 10 km+ - 240° 240° 12 kt METAR LFBG 151500Z AUTO 24012KT 200V280 CAVOK 26/14 Q1009
16:30
V
27 °C 10 km+ 5.400 ft 230° 230° 13 kt METAR LFBG 151430Z AUTO 23013KT 200V270 9999 SCT048 BKN054 27/14 Q1009
16:00
V
27 °C 10 km+ - 230° 230° 13 kt METAR LFBG 151400Z AUTO 23013KT 210V280 9999 FEW047 27/14 Q1009
15:30
V
27 °C 10 km+ - 240° 240° 12 kt METAR LFBG 151330Z AUTO 24012KT 210V280 9999 FEW045 27/14 Q1009
15:00
V
26 °C 10 km+ 4.200 ft 240° 240° 16 kt METAR LFBG 151300Z AUTO 24016KT 9999 BKN042 26/14 Q1009
14:30
V
26 °C 10 km+ 5.400 ft 230° 230° 14 kt METAR LFBG 151230Z AUTO 23014KT 200V270 9999 SCT041 BKN054 26/15 Q1009
14:00
V
25 °C 10 km+ 5.200 ft 230° 230° 15 kt METAR LFBG 151200Z AUTO 23015KT 9999 SCT041 BKN052 25/15 Q1009
13:30
V
26 °C 10 km+ 4.700 ft 240° 240° 14 kt METAR LFBG 151130Z AUTO 24014KT 210V280 9999 FEW033 SCT039 BKN047 26/15 Q1009
13:00
V
25 °C 10 km+ 4.500 ft 260° 260° 10 kt METAR LFBG 151100Z AUTO 26010KT 220V290 9999 SCT033 BKN045 25/16 Q1009
12:30
V
24 °C 10 km+ 3.200 ft 250° 250° 11 kt METAR LFBG 151030Z AUTO 25011KT 220V280 9999 BKN032 OVC044 24/16 Q1009
12:00
V
24 °C 10 km+ 3.800 ft 230° 230° 13 kt METAR LFBG 151000Z AUTO 23013KT 9999 SCT028 OVC038 24/16 Q1009
Starsze dane

My i osoby trzecie śledzimy twoje zachowanie w internecie na naszej stronie za pomocą plików cookie. Jeśli kontynuujesz, zakładamy, że zgadzasz się z naszą polityką plików cookie. Dowiedz się więcej